Terminal Aerodrome Forecast
Issued by NWS Cleveland, OH

Home | Current Version | Previous Version | Text Only | Print | Product List | Glossary On
Versions: 1 2 3 4 5 6 7 8 9 10 11 12 13 14 15 16 17
000
FTUS41 KCLE 201700
TAFCAK
TAF
KCAK 201729Z 2018/2118 VRB03KT P6SM OVC024=

USA.gov is the U.S. government's official web portal to all federal, state and local government web resources and services.